This is the latest recevied weather packets stored in our database for station/object K5SVV. If no packets are shown the sender has not sent any weather packets the latest 10 day(s).
| Time | Temp. | Humidity | Pressure | Rain* | Wind** | Luminosity | Snow |
|---|---|---|---|---|---|---|---|
| 1777483682 | 15° C | 90% | 1015 hPa | 0 mm | - | 65 W/m² | - |
| 1777483378 | 15° C | 90% | 1014.9 hPa | 0 mm | - | 72 W/m² | - |
| 1777483072 | 15° C | 90% | 1014.7 hPa | 0 mm | - | 74 W/m² | - |
| 1777482770 | 15° C | 91% | 1014.6 hPa | 0 mm | - | 69 W/m² | - |
| 1777482466 | 15° C | 91% | 1014.5 hPa | 0 mm | - | 78 W/m² | - |
| 1777482164 | 15° C | 91% | 1014.1 hPa | 0 mm | - | 96 W/m² | - |
| 1777481861 | 15° C | 91% | 1014.1 hPa | 0 mm | - | 127 W/m² | - |
| 1777481558 | 15° C | 91% | 1014.6 hPa | 0 mm | - | 116 W/m² | - |
| 1777481255 | 15° C | 92% | 1014.6 hPa | 0 mm | - | 107 W/m² | - |
| 1777480952 | 15° C | 92% | 1014.5 hPa | 0 mm | - | 70 W/m² | - |
| 1777480648 | 15° C | 92% | 1014.5 hPa | 0 mm | - | 87 W/m² | - |
| 1777480345 | 15° C | 93% | 1014.9 hPa | 0 mm | - | 70 W/m² | - |
| 1777480041 | 15° C | 93% | 1014.9 hPa | 0 mm | - | 63 W/m² | - |
| 1777479738 | 14.44° C | 94% | 1014.7 hPa | 0 mm | - | 108 W/m² | - |
| 1777479436 | 14.44° C | 94% | 1015.1 hPa | 0 mm | - | 47 W/m² | - |
| 1777479132 | 14.44° C | 94% | 1015 hPa | 0 mm | - | 72 W/m² | - |
| 1777478829 | 14.44° C | 93% | 1014.9 hPa | 0 mm | - | 55 W/m² | - |
| 1777478525 | 15° C | 93% | 1014.8 hPa | 0 mm | - | 54 W/m² | - |
| 1777478222 | 15° C | 93% | 1014.8 hPa | 0 mm | - | 39 W/m² | - |
| 1777477919 | 15° C | 92% | 1014.5 hPa | 0 mm | - | 88 W/m² | - |
| 1777477614 | 15° C | 92% | 1014.6 hPa | 0 mm | - | 62 W/m² | - |
| 1777477310 | 15° C | 92% | 1014.7 hPa | 0 mm | - | 40 W/m² | - |
| 1777477002 | 15° C | 91% | 1014.6 hPa | 0 mm | - | 39 W/m² | - |
| 1777476700 | 15° C | 90% | 1014.2 hPa | 0 mm | - | 36 W/m² | - |
| 1777476396 | 15° C | 90% | 1014.8 hPa | 0 mm | - | 26 W/m² | - |
* Rain latest hour (hover to see other rain measurements)
** Current wind speed in m/s (hover to see current wind gust speed)